sensor_id;sensor_type;location;lat;lon;timestamp;P1;durP1;ratioP1;P2;durP2;ratioP2
69401;SDS011;56589;51.992;5.924;2022-09-01T00:00:43;2.40;;;0.75;;
69401;SDS011;56589;51.992;5.924;2022-09-01T00:03:10;4.13;;;1.10;;
69401;SDS011;56589;51.992;5.924;2022-09-01T00:05:36;1.45;;;0.80;;
69401;SDS011;56589;51.992;5.924;2022-09-01T00:08:02;1.88;;;0.95;;
69401;SDS011;56589;51.992;5.924;2022-09-01T00:10:28;2.65;;;1.08;;
69401;SDS011;56589;51.992;5.924;2022-09-01T00:12:54;2.20;;;1.20;;
69401;SDS011;56589;51.992;5.924;2022-09-01T00:15:23;3.95;;;1.50;;
69401;SDS011;56589;51.992;5.924;2022-09-01T00:17:49;6.03;;;1.10;;
69401;SDS011;56589;51.992;5.924;2022-09-01T00:20:15;4.22;;;1.15;;
69401;SDS011;56589;51.992;5.924;2022-09-01T00:22:41;2.60;;;0.90;;
69401;SDS011;56589;51.992;5.924;2022-09-01T00:25:07;1.55;;;1.00;;
69401;SDS011;56589;51.992;5.924;2022-09-01T00:27:33;3.45;;;1.00;;
69401;SDS011;56589;51.992;5.924;2022-09-01T00:29:59;2.92;;;1.23;;
69401;SDS011;56589;51.992;5.924;2022-09-01T00:32:27;3.38;;;1.10;;
69401;SDS011;56589;51.992;5.924;2022-09-01T00:34:53;1.70;;;1.10;;
69401;SDS011;56589;51.992;5.924;2022-09-01T00:37:19;3.20;;;0.93;;
69401;SDS011;56589;51.992;5.924;2022-09-01T00:39:45;2.85;;;1.13;;
69401;SDS011;56589;51.992;5.924;2022-09-01T00:42:11;1.35;;;0.90;;
69401;SDS011;56589;51.992;5.924;2022-09-01T00:44:36;3.28;;;1.20;;
69401;SDS011;56589;51.992;5.924;2022-09-01T00:47:02;5.30;;;1.30;;
69401;SDS011;56589;51.992;5.924;2022-09-01T00:49:32;4.25;;;1.65;;
69401;SDS011;56589;51.992;5.924;2022-09-01T00:52:04;2.13;;;1.10;;
69401;SDS011;56589;51.992;5.924;2022-09-01T00:54:39;2.80;;;1.20;;
69401;SDS011;56589;51.992;5.924;2022-09-01T00:57:09;3.33;;;1.27;;
69401;SDS011;56589;51.992;5.924;2022-09-01T00:59:35;4.10;;;1.73;;
69401;SDS011;56589;51.992;5.924;2022-09-01T01:02:11;5.45;;;1.52;;
69401;SDS011;56589;51.992;5.924;2022-09-01T01:04:39;5.35;;;1.35;;
69401;SDS011;56589;51.992;5.924;2022-09-01T01:07:05;2.13;;;0.85;;
69401;SDS011;56589;51.992;5.924;2022-09-01T01:09:32;3.15;;;1.20;;
69401;SDS011;56589;51.992;5.924;2022-09-01T01:12:02;3.80;;;1.70;;
69401;SDS011;56589;51.992;5.924;2022-09-01T01:14:33;6.30;;;1.17;;
69401;SDS011;56589;51.992;5.924;2022-09-01T01:16:59;3.92;;;1.20;;
69401;SDS011;56589;51.992;5.924;2022-09-01T01:19:28;2.75;;;1.00;;
69401;SDS011;56589;51.992;5.924;2022-09-01T01:22:10;3.50;;;0.90;;
69401;SDS011;56589;51.992;5.924;2022-09-01T01:24:46;2.40;;;1.00;;
69401;SDS011;56589;51.992;5.924;2022-09-01T01:27:12;2.78;;;0.93;;
69401;SDS011;56589;51.992;5.924;2022-09-01T01:29:38;1.75;;;0.90;;
69401;SDS011;56589;51.992;5.924;2022-09-01T01:32:04;2.47;;;1.23;;
69401;SDS011;56589;51.992;5.924;2022-09-01T01:34:30;1.30;;;0.90;;
69401;SDS011;56589;51.992;5.924;2022-09-01T01:36:56;2.30;;;0.90;;
69401;SDS011;56589;51.992;5.924;2022-09-01T01:39:23;0.93;;;0.60;;
69401;SDS011;56589;51.992;5.924;2022-09-01T01:41:52;1.92;;;0.88;;
69401;SDS011;56589;51.992;5.924;2022-09-01T01:44:20;3.80;;;1.13;;
69401;SDS011;56589;51.992;5.924;2022-09-01T01:46:50;1.90;;;0.90;;
69401;SDS011;56589;51.992;5.924;2022-09-01T01:49:18;2.22;;;1.00;;
69401;SDS011;56589;51.992;5.924;2022-09-01T01:51:49;1.23;;;0.80;;
69401;SDS011;56589;51.992;5.924;2022-09-01T01:54:17;1.25;;;0.73;;
69401;SDS011;56589;51.992;5.924;2022-09-01T01:56:43;1.70;;;0.60;;
69401;SDS011;56589;51.992;5.924;2022-09-01T01:59:11;1.15;;;0.70;;
69401;SDS011;56589;51.992;5.924;2022-09-01T02:01:37;2.92;;;0.82;;
69401;SDS011;56589;51.992;5.924;2022-09-01T02:04:03;4.13;;;0.80;;
69401;SDS011;56589;51.992;5.924;2022-09-01T02:06:31;3.25;;;0.70;;
69401;SDS011;56589;51.992;5.924;2022-09-01T02:08:58;3.08;;;0.90;;
69401;SDS011;56589;51.992;5.924;2022-09-01T02:11:25;3.67;;;0.88;;
69401;SDS011;56589;51.992;5.924;2022-09-01T02:13:51;1.20;;;0.70;;
69401;SDS011;56589;51.992;5.924;2022-09-01T02:16:20;2.05;;;0.68;;
69401;SDS011;56589;51.992;5.924;2022-09-01T02:18:47;1.55;;;0.50;;
69401;SDS011;56589;51.992;5.924;2022-09-01T02:21:14;1.67;;;0.55;;
69401;SDS011;56589;51.992;5.924;2022-09-01T02:23:43;1.10;;;0.80;;
69401;SDS011;56589;51.992;5.924;2022-09-01T02:26:10;3.38;;;0.70;;
69401;SDS011;56589;51.992;5.924;2022-09-01T02:28:38;2.88;;;0.70;;
69401;SDS011;56589;51.992;5.924;2022-09-01T02:31:04;2.03;;;0.75;;
69401;SDS011;56589;51.992;5.924;2022-09-01T02:33:33;1.13;;;0.60;;
69401;SDS011;56589;51.992;5.924;2022-09-01T02:36:02;1.40;;;0.70;;
69401;SDS011;56589;51.992;5.924;2022-09-01T02:38:33;1.60;;;0.73;;
69401;SDS011;56589;51.992;5.924;2022-09-01T02:41:00;2.88;;;0.90;;
69401;SDS011;56589;51.992;5.924;2022-09-01T02:43:27;1.55;;;0.75;;
69401;SDS011;56589;51.992;5.924;2022-09-01T02:45:55;1.80;;;0.70;;
69401;SDS011;56589;51.992;5.924;2022-09-01T02:48:23;2.42;;;0.80;;
69401;SDS011;56589;51.992;5.924;2022-09-01T02:50:55;3.05;;;0.88;;
69401;SDS011;56589;51.992;5.924;2022-09-01T02:53:21;1.88;;;0.70;;
69401;SDS011;56589;51.992;5.924;2022-09-01T02:55:47;3.13;;;1.08;;
69401;SDS011;56589;51.992;5.924;2022-09-01T02:58:12;3.67;;;0.98;;
69401;SDS011;56589;51.992;5.924;2022-09-01T03:00:38;2.83;;;0.95;;
69401;SDS011;56589;51.992;5.924;2022-09-01T03:03:04;1.83;;;0.68;;
69401;SDS011;56589;51.992;5.924;2022-09-01T03:05:31;2.55;;;1.02;;
69401;SDS011;56589;51.992;5.924;2022-09-01T03:08:03;1.73;;;0.80;;
69401;SDS011;56589;51.992;5.924;2022-09-01T03:10:32;3.42;;;1.05;;
69401;SDS011;56589;51.992;5.924;2022-09-01T03:13:03;2.10;;;0.80;;
69401;SDS011;56589;51.992;5.924;2022-09-01T03:15:33;3.15;;;0.90;;
69401;SDS011;56589;51.992;5.924;2022-09-01T03:18:00;2.78;;;0.80;;
69401;SDS011;56589;51.992;5.924;2022-09-01T03:20:28;3.97;;;0.85;;
69401;SDS011;56589;51.992;5.924;2022-09-01T03:22:56;1.25;;;0.88;;
69401;SDS011;56589;51.992;5.924;2022-09-01T03:25:25;3.70;;;1.13;;
69401;SDS011;56589;51.992;5.924;2022-09-01T03:27:51;3.15;;;1.00;;
69401;SDS011;56589;51.992;5.924;2022-09-01T03:30:17;3.38;;;1.02;;
69401;SDS011;56589;51.992;5.924;2022-09-01T03:32:44;3.83;;;1.00;;
69401;SDS011;56589;51.992;5.924;2022-09-01T03:35:10;3.08;;;1.15;;
69401;SDS011;56589;51.992;5.924;2022-09-01T03:37:36;3.17;;;1.40;;
69401;SDS011;56589;51.992;5.924;2022-09-01T03:40:03;2.55;;;1.00;;
69401;SDS011;56589;51.992;5.924;2022-09-01T03:42:34;4.10;;;1.00;;
69401;SDS011;56589;51.992;5.924;2022-09-01T03:45:00;4.13;;;1.00;;
69401;SDS011;56589;51.992;5.924;2022-09-01T03:47:26;3.78;;;1.00;;
69401;SDS011;56589;51.992;5.924;2022-09-01T03:49:52;1.83;;;0.85;;
69401;SDS011;56589;51.992;5.924;2022-09-01T03:52:17;1.75;;;0.88;;
69401;SDS011;56589;51.992;5.924;2022-09-01T03:54:43;1.90;;;0.75;;
69401;SDS011;56589;51.992;5.924;2022-09-01T03:57:09;2.78;;;0.93;;
69401;SDS011;56589;51.992;5.924;2022-09-01T03:59:37;4.38;;;0.98;;
69401;SDS011;56589;51.992;5.924;2022-09-01T04:02:03;3.47;;;0.93;;
69401;SDS011;56589;51.992;5.924;2022-09-01T04:04:29;3.10;;;1.00;;
69401;SDS011;56589;51.992;5.924;2022-09-01T04:06:54;2.28;;;0.95;;
69401;SDS011;56589;51.992;5.924;2022-09-01T04:09:21;2.50;;;1.00;;
69401;SDS011;56589;51.992;5.924;2022-09-01T04:11:47;1.42;;;0.90;;
69401;SDS011;56589;51.992;5.924;2022-09-01T04:14:13;3.05;;;0.80;;
69401;SDS011;56589;51.992;5.924;2022-09-01T04:16:42;3.22;;;0.93;;
69401;SDS011;56589;51.992;5.924;2022-09-01T04:19:09;2.20;;;0.80;;
69401;SDS011;56589;51.992;5.924;2022-09-01T04:21:36;1.92;;;1.00;;
69401;SDS011;56589;51.992;5.924;2022-09-01T04:24:01;2.88;;;0.82;;
69401;SDS011;56589;51.992;5.924;2022-09-01T04:26:27;2.00;;;0.90;;
69401;SDS011;56589;51.992;5.924;2022-09-01T04:28:53;1.95;;;1.00;;
69401;SDS011;56589;51.992;5.924;2022-09-01T04:31:20;4.35;;;1.17;;
69401;SDS011;56589;51.992;5.924;2022-09-01T04:33:49;2.25;;;0.90;;
69401;SDS011;56589;51.992;5.924;2022-09-01T04:36:17;4.07;;;0.80;;
69401;SDS011;56589;51.992;5.924;2022-09-01T04:38:48;1.88;;;0.88;;
69401;SDS011;56589;51.992;5.924;2022-09-01T04:41:17;5.63;;;0.70;;
69401;SDS011;56589;51.992;5.924;2022-09-01T04:43:43;1.67;;;0.80;;
69401;SDS011;56589;51.992;5.924;2022-09-01T04:46:09;1.58;;;0.50;;
69401;SDS011;56589;51.992;5.924;2022-09-01T04:48:35;2.13;;;0.90;;
69401;SDS011;56589;51.992;5.924;2022-09-01T04:51:04;0.65;;;0.60;;
69401;SDS011;56589;51.992;5.924;2022-09-01T04:53:31;1.70;;;0.70;;
69401;SDS011;56589;51.992;5.924;2022-09-01T04:56:01;1.98;;;1.08;;
69401;SDS011;56589;51.992;5.924;2022-09-01T04:58:27;2.55;;;0.80;;
69401;SDS011;56589;51.992;5.924;2022-09-01T05:00:53;1.80;;;0.70;;
69401;SDS011;56589;51.992;5.924;2022-09-01T05:03:19;2.03;;;0.77;;
69401;SDS011;56589;51.992;5.924;2022-09-01T05:05:45;1.75;;;1.05;;
69401;SDS011;56589;51.992;5.924;2022-09-01T05:08:14;3.63;;;0.95;;
69401;SDS011;56589;51.992;5.924;2022-09-01T05:10:44;4.85;;;1.00;;
69401;SDS011;56589;51.992;5.924;2022-09-01T05:13:13;0.80;;;0.65;;
69401;SDS011;56589;51.992;5.924;2022-09-01T05:15:40;2.30;;;1.02;;
69401;SDS011;56589;51.992;5.924;2022-09-01T05:18:06;3.33;;;0.98;;
69401;SDS011;56589;51.992;5.924;2022-09-01T05:20:32;1.55;;;0.77;;
69401;SDS011;56589;51.992;5.924;2022-09-01T05:22:58;2.45;;;0.75;;
69401;SDS011;56589;51.992;5.924;2022-09-01T05:25:26;3.47;;;1.10;;
69401;SDS011;56589;51.992;5.924;2022-09-01T05:27:52;2.35;;;0.85;;
69401;SDS011;56589;51.992;5.924;2022-09-01T05:30:17;3.42;;;0.88;;
69401;SDS011;56589;51.992;5.924;2022-09-01T05:32:43;3.60;;;0.93;;
69401;SDS011;56589;51.992;5.924;2022-09-01T05:35:09;4.68;;;0.98;;
69401;SDS011;56589;51.992;5.924;2022-09-01T05:37:35;2.22;;;0.98;;
69401;SDS011;56589;51.992;5.924;2022-09-01T05:40:01;3.72;;;1.10;;
69401;SDS011;56589;51.992;5.924;2022-09-01T05:42:33;1.77;;;1.15;;
69401;SDS011;56589;51.992;5.924;2022-09-01T05:44:59;2.67;;;0.88;;
69401;SDS011;56589;51.992;5.924;2022-09-01T05:47:25;2.83;;;0.90;;
69401;SDS011;56589;51.992;5.924;2022-09-01T05:49:50;4.22;;;1.00;;
69401;SDS011;56589;51.992;5.924;2022-09-01T05:52:16;3.83;;;0.85;;
69401;SDS011;56589;51.992;5.924;2022-09-01T05:54:42;1.52;;;0.80;;
69401;SDS011;56589;51.992;5.924;2022-09-01T05:57:08;4.10;;;0.88;;
69401;SDS011;56589;51.992;5.924;2022-09-01T05:59:36;2.45;;;0.80;;
69401;SDS011;56589;51.992;5.924;2022-09-01T06:02:02;1.63;;;0.90;;
69401;SDS011;56589;51.992;5.924;2022-09-01T06:04:29;1.38;;;0.85;;
69401;SDS011;56589;51.992;5.924;2022-09-01T06:06:54;1.23;;;0.68;;
69401;SDS011;56589;51.992;5.924;2022-09-01T06:09:20;4.22;;;1.00;;
69401;SDS011;56589;51.992;5.924;2022-09-01T06:11:46;1.25;;;0.73;;
69401;SDS011;56589;51.992;5.924;2022-09-01T06:14:12;6.60;;;1.13;;
69401;SDS011;56589;51.992;5.924;2022-09-01T06:16:41;6.72;;;0.80;;
69401;SDS011;56589;51.992;5.924;2022-09-01T06:19:07;2.70;;;0.90;;
69401;SDS011;56589;51.992;5.924;2022-09-01T06:21:34;2.05;;;0.70;;
69401;SDS011;56589;51.992;5.924;2022-09-01T06:24:03;3.58;;;0.75;;
69401;SDS011;56589;51.992;5.924;2022-09-01T06:26:30;2.95;;;1.13;;
69401;SDS011;56589;51.992;5.924;2022-09-01T06:28:59;2.10;;;0.77;;
69401;SDS011;56589;51.992;5.924;2022-09-01T06:31:30;1.55;;;0.63;;
69401;SDS011;56589;51.992;5.924;2022-09-01T06:34:01;3.28;;;0.70;;
69401;SDS011;56589;51.992;5.924;2022-09-01T06:36:28;2.13;;;0.65;;
69401;SDS011;56589;51.992;5.924;2022-09-01T06:38:55;1.23;;;0.80;;
69401;SDS011;56589;51.992;5.924;2022-09-01T06:41:21;2.58;;;0.88;;
69401;SDS011;56589;51.992;5.924;2022-09-01T06:43:47;1.85;;;0.70;;
69401;SDS011;56589;51.992;5.924;2022-09-01T06:46:15;2.20;;;0.90;;
69401;SDS011;56589;51.992;5.924;2022-09-01T06:48:41;2.25;;;0.80;;
69401;SDS011;56589;51.992;5.924;2022-09-01T06:51:09;3.70;;;0.95;;
69401;SDS011;56589;51.992;5.924;2022-09-01T06:53:36;2.72;;;0.90;;
69401;SDS011;56589;51.992;5.924;2022-09-01T06:56:02;1.98;;;0.82;;
69401;SDS011;56589;51.992;5.924;2022-09-01T06:58:28;4.13;;;1.00;;
69401;SDS011;56589;51.992;5.924;2022-09-01T07:00:53;1.95;;;0.93;;
69401;SDS011;56589;51.992;5.924;2022-09-01T07:03:19;1.98;;;0.80;;
69401;SDS011;56589;51.992;5.924;2022-09-01T07:05:45;2.72;;;1.00;;
69401;SDS011;56589;51.992;5.924;2022-09-01T07:08:15;4.45;;;0.90;;
69401;SDS011;56589;51.992;5.924;2022-09-01T07:10:42;3.47;;;0.80;;
69401;SDS011;56589;51.992;5.924;2022-09-01T07:13:12;2.58;;;0.90;;
69401;SDS011;56589;51.992;5.924;2022-09-01T07:15:40;5.10;;;1.20;;
69401;SDS011;56589;51.992;5.924;2022-09-01T07:18:07;3.00;;;0.85;;
69401;SDS011;56589;51.992;5.924;2022-09-01T07:20:32;3.92;;;1.10;;
69401;SDS011;56589;51.992;5.924;2022-09-01T07:22:58;4.13;;;0.90;;
69401;SDS011;56589;51.992;5.924;2022-09-01T07:25:26;2.65;;;1.05;;
69401;SDS011;56589;51.992;5.924;2022-09-01T07:27:52;4.68;;;0.85;;
69401;SDS011;56589;51.992;5.924;2022-09-01T07:30:19;5.63;;;0.90;;
69401;SDS011;56589;51.992;5.924;2022-09-01T07:32:46;4.30;;;0.75;;
69401;SDS011;56589;51.992;5.924;2022-09-01T07:35:14;3.03;;;0.80;;
69401;SDS011;56589;51.992;5.924;2022-09-01T07:37:42;6.45;;;0.90;;
69401;SDS011;56589;51.992;5.924;2022-09-01T07:40:09;3.58;;;0.90;;
69401;SDS011;56589;51.992;5.924;2022-09-01T07:42:40;10.05;;;1.00;;
69401;SDS011;56589;51.992;5.924;2022-09-01T07:45:06;4.88;;;1.25;;
69401;SDS011;56589;51.992;5.924;2022-09-01T07:47:35;1.48;;;0.95;;
69401;SDS011;56589;51.992;5.924;2022-09-01T07:50:01;5.95;;;0.90;;
69401;SDS011;56589;51.992;5.924;2022-09-01T07:52:27;2.65;;;0.95;;
69401;SDS011;56589;51.992;5.924;2022-09-01T07:54:52;3.08;;;0.80;;
69401;SDS011;56589;51.992;5.924;2022-09-01T07:57:18;2.97;;;0.93;;
69401;SDS011;56589;51.992;5.924;2022-09-01T07:59:46;2.28;;;1.00;;
69401;SDS011;56589;51.992;5.924;2022-09-01T08:02:12;2.95;;;0.93;;
69401;SDS011;56589;51.992;5.924;2022-09-01T08:04:38;3.17;;;0.90;;
69401;SDS011;56589;51.992;5.924;2022-09-01T08:07:03;2.65;;;1.08;;
69401;SDS011;56589;51.992;5.924;2022-09-01T08:09:29;2.50;;;0.95;;
69401;SDS011;56589;51.992;5.924;2022-09-01T08:11:55;7.53;;;1.30;;
69401;SDS011;56589;51.992;5.924;2022-09-01T08:14:21;3.17;;;0.88;;
69401;SDS011;56589;51.992;5.924;2022-09-01T08:16:49;5.55;;;1.10;;
69401;SDS011;56589;51.992;5.924;2022-09-01T08:19:15;3.95;;;0.95;;
69401;SDS011;56589;51.992;5.924;2022-09-01T08:21:40;2.90;;;1.00;;
69401;SDS011;56589;51.992;5.924;2022-09-01T08:24:06;1.73;;;0.80;;
69401;SDS011;56589;51.992;5.924;2022-09-01T08:26:32;5.45;;;1.25;;
69401;SDS011;56589;51.992;5.924;2022-09-01T08:28:58;4.35;;;0.95;;
69401;SDS011;56589;51.992;5.924;2022-09-01T08:31:23;2.10;;;0.80;;
69401;SDS011;56589;51.992;5.924;2022-09-01T08:33:52;3.40;;;0.85;;
69401;SDS011;56589;51.992;5.924;2022-09-01T08:36:18;3.35;;;0.93;;
69401;SDS011;56589;51.992;5.924;2022-09-01T08:38:45;1.85;;;0.93;;
69401;SDS011;56589;51.992;5.924;2022-09-01T08:41:14;4.82;;;1.10;;
69401;SDS011;56589;51.992;5.924;2022-09-01T08:43:49;2.83;;;0.77;;
69401;SDS011;56589;51.992;5.924;2022-09-01T08:46:32;2.38;;;0.80;;
69401;SDS011;56589;51.992;5.924;2022-09-01T08:49:09;2.60;;;0.90;;
69401;SDS011;56589;51.992;5.924;2022-09-01T08:51:41;4.20;;;0.90;;
69401;SDS011;56589;51.992;5.924;2022-09-01T08:54:16;5.05;;;1.10;;
69401;SDS011;56589;51.992;5.924;2022-09-01T08:56:49;3.10;;;0.80;;
69401;SDS011;56589;51.992;5.924;2022-09-01T08:59:18;4.47;;;0.85;;
69401;SDS011;56589;51.992;5.924;2022-09-01T09:01:46;1.10;;;0.63;;
69401;SDS011;56589;51.992;5.924;2022-09-01T09:04:29;5.28;;;0.63;;
69401;SDS011;56589;51.992;5.924;2022-09-01T09:07:18;5.95;;;1.45;;
69401;SDS011;56589;51.992;5.924;2022-09-01T09:10:02;2.03;;;0.90;;
69401;SDS011;56589;51.992;5.924;2022-09-01T09:12:37;1.45;;;0.60;;
69401;SDS011;56589;51.992;5.924;2022-09-01T09:15:21;3.83;;;0.70;;
69401;SDS011;56589;51.992;5.924;2022-09-01T09:17:58;5.22;;;0.65;;
69401;SDS011;56589;51.992;5.924;2022-09-01T09:20:40;2.30;;;0.50;;
69401;SDS011;56589;51.992;5.924;2022-09-01T09:23:11;2.33;;;0.50;;
69401;SDS011;56589;51.992;5.924;2022-09-01T09:25:48;2.95;;;0.60;;
69401;SDS011;56589;51.992;5.924;2022-09-01T09:28:14;1.60;;;0.63;;
69401;SDS011;56589;51.992;5.924;2022-09-01T09:30:40;3.28;;;0.80;;
69401;SDS011;56589;51.992;5.924;2022-09-01T09:33:06;3.70;;;0.60;;
69401;SDS011;56589;51.992;5.924;2022-09-01T09:35:34;1.80;;;0.90;;
69401;SDS011;56589;51.992;5.924;2022-09-01T09:38:19;1.92;;;0.80;;
69401;SDS011;56589;51.992;5.924;2022-09-01T09:40:54;2.83;;;1.00;;
69401;SDS011;56589;51.992;5.924;2022-09-01T09:43:24;1.95;;;0.70;;
69401;SDS011;56589;51.992;5.924;2022-09-01T09:45:53;3.10;;;0.77;;
69401;SDS011;56589;51.992;5.924;2022-09-01T09:48:48;1.83;;;0.43;;
69401;SDS011;56589;51.992;5.924;2022-09-01T09:51:31;1.92;;;0.35;;
69401;SDS011;56589;51.992;5.924;2022-09-01T09:54:11;2.17;;;0.50;;
69401;SDS011;56589;51.992;5.924;2022-09-01T09:56:42;3.42;;;0.40;;
69401;SDS011;56589;51.992;5.924;2022-09-01T09:59:15;2.55;;;0.50;;
69401;SDS011;56589;51.992;5.924;2022-09-01T10:01:48;2.67;;;0.70;;
69401;SDS011;56589;51.992;5.924;2022-09-01T10:04:14;1.52;;;0.40;;
69401;SDS011;56589;51.992;5.924;2022-09-01T10:06:59;0.88;;;0.30;;
69401;SDS011;56589;51.992;5.924;2022-09-01T10:09:35;2.35;;;0.47;;
69401;SDS011;56589;51.992;5.924;2022-09-01T10:12:02;2.03;;;0.52;;
69401;SDS011;56589;51.992;5.924;2022-09-01T10:14:30;1.60;;;0.47;;
69401;SDS011;56589;51.992;5.924;2022-09-01T10:17:07;2.63;;;0.57;;
69401;SDS011;56589;51.992;5.924;2022-09-01T10:19:41;0.47;;;0.30;;
69401;SDS011;56589;51.992;5.924;2022-09-01T10:22:16;0.98;;;0.40;;
69401;SDS011;56589;51.992;5.924;2022-09-01T10:24:45;0.95;;;0.38;;
69401;SDS011;56589;51.992;5.924;2022-09-01T10:27:12;1.15;;;0.50;;
69401;SDS011;56589;51.992;5.924;2022-09-01T10:29:45;2.70;;;0.50;;
69401;SDS011;56589;51.992;5.924;2022-09-01T10:32:18;1.30;;;0.60;;
69401;SDS011;56589;51.992;5.924;2022-09-01T10:34:55;1.10;;;0.40;;
69401;SDS011;56589;51.992;5.924;2022-09-01T10:37:22;2.05;;;0.60;;
69401;SDS011;56589;51.992;5.924;2022-09-01T10:42:58;2.78;;;0.43;;
69401;SDS011;56589;51.992;5.924;2022-09-01T10:45:49;2.58;;;0.73;;
69401;SDS011;56589;51.992;5.924;2022-09-01T10:48:22;1.05;;;0.55;;
69401;SDS011;56589;51.992;5.924;2022-09-01T10:50:57;2.28;;;0.40;;
69401;SDS011;56589;51.992;5.924;2022-09-01T10:54:07;1.13;;;0.40;;
69401;SDS011;56589;51.992;5.924;2022-09-01T10:56:56;3.28;;;0.47;;
69401;SDS011;56589;51.992;5.924;2022-09-01T10:59:25;3.00;;;0.57;;
69401;SDS011;56589;51.992;5.924;2022-09-01T11:02:03;4.72;;;0.40;;
69401;SDS011;56589;51.992;5.924;2022-09-01T11:07:35;1.02;;;0.60;;
69401;SDS011;56589;51.992;5.924;2022-09-01T11:13:32;2.17;;;0.40;;
69401;SDS011;56589;51.992;5.924;2022-09-01T11:18:52;3.33;;;0.60;;
69401;SDS011;56589;51.992;5.924;2022-09-01T11:21:18;1.98;;;0.40;;
69401;SDS011;56589;51.992;5.924;2022-09-01T11:27:02;1.50;;;0.57;;
69401;SDS011;56589;51.992;5.924;2022-09-01T11:32:23;1.95;;;0.50;;
69401;SDS011;56589;51.992;5.924;2022-09-01T11:34:59;1.08;;;0.63;;
69401;SDS011;56589;51.992;5.924;2022-09-01T11:37:29;1.45;;;0.52;;
69401;SDS011;56589;51.992;5.924;2022-09-01T11:39:57;2.03;;;0.50;;
69401;SDS011;56589;51.992;5.924;2022-09-01T11:42:26;1.17;;;0.60;;
69401;SDS011;56589;51.992;5.924;2022-09-01T11:45:05;1.48;;;0.40;;
69401;SDS011;56589;51.992;5.924;2022-09-01T11:47:41;2.30;;;0.65;;
69401;SDS011;56589;51.992;5.924;2022-09-01T11:50:16;4.40;;;0.70;;
69401;SDS011;56589;51.992;5.924;2022-09-01T11:52:51;2.72;;;0.60;;
69401;SDS011;56589;51.992;5.924;2022-09-01T11:55:27;3.65;;;0.70;;
69401;SDS011;56589;51.992;5.924;2022-09-01T11:57:57;1.70;;;0.50;;
69401;SDS011;56589;51.992;5.924;2022-09-01T12:00:29;4.05;;;0.60;;
69401;SDS011;56589;51.992;5.924;2022-09-01T12:02:58;1.25;;;0.60;;
69401;SDS011;56589;51.992;5.924;2022-09-01T12:05:28;0.75;;;0.47;;
69401;SDS011;56589;51.992;5.924;2022-09-01T12:07:57;1.55;;;0.50;;
69401;SDS011;56589;51.992;5.924;2022-09-01T12:10:28;3.42;;;0.60;;
69401;SDS011;56589;51.992;5.924;2022-09-01T12:12:59;3.35;;;0.63;;
69401;SDS011;56589;51.992;5.924;2022-09-01T12:15:31;2.45;;;0.52;;
69401;SDS011;56589;51.992;5.924;2022-09-01T12:18:10;4.22;;;0.77;;
69401;SDS011;56589;51.992;5.924;2022-09-01T12:20:39;2.20;;;0.52;;
69401;SDS011;56589;51.992;5.924;2022-09-01T12:23:14;3.55;;;0.93;;
69401;SDS011;56589;51.992;5.924;2022-09-01T12:25:46;2.58;;;0.70;;
69401;SDS011;56589;51.992;5.924;2022-09-01T12:28:13;4.43;;;0.50;;
69401;SDS011;56589;51.992;5.924;2022-09-01T12:30:41;2.17;;;0.82;;
69401;SDS011;56589;51.992;5.924;2022-09-01T12:33:09;1.83;;;0.40;;
69401;SDS011;56589;51.992;5.924;2022-09-01T12:35:37;3.95;;;0.73;;
69401;SDS011;56589;51.992;5.924;2022-09-01T12:38:20;2.17;;;0.55;;
69401;SDS011;56589;51.992;5.924;2022-09-01T12:40:48;3.60;;;0.70;;
69401;SDS011;56589;51.992;5.924;2022-09-01T12:43:29;3.22;;;0.60;;
69401;SDS011;56589;51.992;5.924;2022-09-01T12:46:02;1.63;;;0.70;;
69401;SDS011;56589;51.992;5.924;2022-09-01T12:48:29;2.85;;;0.68;;
69401;SDS011;56589;51.992;5.924;2022-09-01T12:50:57;2.50;;;0.50;;
69401;SDS011;56589;51.992;5.924;2022-09-01T12:53:26;1.25;;;0.55;;
69401;SDS011;56589;51.992;5.924;2022-09-01T12:56:14;0.70;;;0.40;;
69401;SDS011;56589;51.992;5.924;2022-09-01T12:58:47;4.28;;;0.70;;
69401;SDS011;56589;51.992;5.924;2022-09-01T13:01:26;3.70;;;0.50;;
69401;SDS011;56589;51.992;5.924;2022-09-01T13:04:05;1.75;;;0.55;;
69401;SDS011;56589;51.992;5.924;2022-09-01T13:06:48;2.47;;;0.60;;
69401;SDS011;56589;51.992;5.924;2022-09-01T13:09:16;1.77;;;0.55;;
69401;SDS011;56589;51.992;5.924;2022-09-01T13:11:42;3.70;;;0.50;;
69401;SDS011;56589;51.992;5.924;2022-09-01T13:14:08;1.45;;;0.50;;
69401;SDS011;56589;51.992;5.924;2022-09-01T13:16:37;1.23;;;0.50;;
69401;SDS011;56589;51.992;5.924;2022-09-01T13:19:03;2.05;;;0.60;;
69401;SDS011;56589;51.992;5.924;2022-09-01T13:21:28;4.22;;;1.38;;
69401;SDS011;56589;51.992;5.924;2022-09-01T13:23:57;3.53;;;0.70;;
69401;SDS011;56589;51.992;5.924;2022-09-01T13:26:23;1.80;;;0.70;;
69401;SDS011;56589;51.992;5.924;2022-09-01T13:28:48;1.52;;;0.70;;
69401;SDS011;56589;51.992;5.924;2022-09-01T13:31:14;4.90;;;0.70;;
69401;SDS011;56589;51.992;5.924;2022-09-01T13:33:43;1.52;;;0.60;;
69401;SDS011;56589;51.992;5.924;2022-09-01T13:36:08;1.73;;;0.50;;
69401;SDS011;56589;51.992;5.924;2022-09-01T13:38:34;3.35;;;0.93;;
69401;SDS011;56589;51.992;5.924;2022-09-01T13:41:00;3.63;;;0.80;;
69401;SDS011;56589;51.992;5.924;2022-09-01T13:43:26;5.25;;;0.80;;
69401;SDS011;56589;51.992;5.924;2022-09-01T13:45:52;0.75;;;0.50;;
69401;SDS011;56589;51.992;5.924;2022-09-01T13:48:18;1.38;;;0.43;;
69401;SDS011;56589;51.992;5.924;2022-09-01T13:50:48;2.40;;;0.40;;
69401;SDS011;56589;51.992;5.924;2022-09-01T13:53:16;2.38;;;0.45;;
69401;SDS011;56589;51.992;5.924;2022-09-01T13:55:41;1.45;;;0.60;;
69401;SDS011;56589;51.992;5.924;2022-09-01T13:58:07;4.80;;;0.70;;
69401;SDS011;56589;51.992;5.924;2022-09-01T14:00:34;2.63;;;0.60;;
69401;SDS011;56589;51.992;5.924;2022-09-01T14:03:04;0.50;;;0.40;;
69401;SDS011;56589;51.992;5.924;2022-09-01T14:05:33;4.82;;;0.68;;
69401;SDS011;56589;51.992;5.924;2022-09-01T14:08:06;3.22;;;0.60;;
69401;SDS011;56589;51.992;5.924;2022-09-01T14:10:36;5.63;;;0.75;;
69401;SDS011;56589;51.992;5.924;2022-09-01T14:13:06;1.77;;;0.60;;
69401;SDS011;56589;51.992;5.924;2022-09-01T14:15:32;3.47;;;0.70;;
69401;SDS011;56589;51.992;5.924;2022-09-01T14:17:59;1.67;;;0.52;;
69401;SDS011;56589;51.992;5.924;2022-09-01T14:20:26;0.77;;;0.50;;
69401;SDS011;56589;51.992;5.924;2022-09-01T14:22:55;3.33;;;0.73;;
69401;SDS011;56589;51.992;5.924;2022-09-01T14:25:24;2.40;;;0.50;;
69401;SDS011;56589;51.992;5.924;2022-09-01T14:27:50;2.65;;;0.88;;
69401;SDS011;56589;51.992;5.924;2022-09-01T14:30:17;1.85;;;0.60;;
69401;SDS011;56589;51.992;5.924;2022-09-01T14:32:46;1.27;;;0.60;;
69401;SDS011;56589;51.992;5.924;2022-09-01T14:35:13;1.65;;;0.80;;
69401;SDS011;56589;51.992;5.924;2022-09-01T14:37:40;2.45;;;0.57;;
69401;SDS011;56589;51.992;5.924;2022-09-01T14:40:07;3.00;;;0.75;;
69401;SDS011;56589;51.992;5.924;2022-09-01T14:42:39;4.38;;;0.85;;
69401;SDS011;56589;51.992;5.924;2022-09-01T14:45:05;5.32;;;0.77;;
69401;SDS011;56589;51.992;5.924;2022-09-01T14:47:33;2.22;;;0.50;;
69401;SDS011;56589;51.992;5.924;2022-09-01T14:49:58;2.83;;;0.70;;
69401;SDS011;56589;51.992;5.924;2022-09-01T14:52:26;2.35;;;0.80;;
69401;SDS011;56589;51.992;5.924;2022-09-01T14:54:51;3.55;;;0.60;;
69401;SDS011;56589;51.992;5.924;2022-09-01T14:57:17;0.70;;;0.40;;
69401;SDS011;56589;51.992;5.924;2022-09-01T14:59:45;3.15;;;0.82;;
69401;SDS011;56589;51.992;5.924;2022-09-01T15:02:11;3.92;;;0.90;;
69401;SDS011;56589;51.992;5.924;2022-09-01T15:04:37;2.83;;;0.80;;
69401;SDS011;56589;51.992;5.924;2022-09-01T15:07:03;1.52;;;0.70;;
69401;SDS011;56589;51.992;5.924;2022-09-01T15:09:29;1.30;;;0.85;;
69401;SDS011;56589;51.992;5.924;2022-09-01T15:11:55;0.85;;;0.65;;
69401;SDS011;56589;51.992;5.924;2022-09-01T15:14:20;0.88;;;0.65;;
69401;SDS011;56589;51.992;5.924;2022-09-01T15:16:49;1.00;;;0.50;;